sensor_id;sensor_type;location;lat;lon;timestamp;temperature;humidity
20672;DHT22;10495;50.922;4.760;2023-08-21T00:01:29;22.00;81.70
20672;DHT22;10495;50.922;4.760;2023-08-21T00:03:55;21.90;81.80
20672;DHT22;10495;50.922;4.760;2023-08-21T00:06:20;21.90;81.80
20672;DHT22;10495;50.922;4.760;2023-08-21T00:08:46;21.90;81.80
20672;DHT22;10495;50.922;4.760;2023-08-21T00:11:12;21.90;81.80
20672;DHT22;10495;50.922;4.760;2023-08-21T00:13:37;21.80;81.90
20672;DHT22;10495;50.922;4.760;2023-08-21T00:16:03;21.80;81.80
20672;DHT22;10495;50.922;4.760;2023-08-21T00:18:29;21.80;82.10
20672;DHT22;10495;50.922;4.760;2023-08-21T00:20:54;21.70;81.90
20672;DHT22;10495;50.922;4.760;2023-08-21T00:23:20;21.70;81.80
20672;DHT22;10495;50.922;4.760;2023-08-21T00:25:47;21.70;81.80
20672;DHT22;10495;50.922;4.760;2023-08-21T00:28:13;21.70;81.60
20672;DHT22;10495;50.922;4.760;2023-08-21T00:30:39;21.70;81.70
20672;DHT22;10495;50.922;4.760;2023-08-21T00:33:05;21.70;81.90
20672;DHT22;10495;50.922;4.760;2023-08-21T00:35:31;21.70;81.90
20672;DHT22;10495;50.922;4.760;2023-08-21T00:37:56;21.70;82.10
20672;DHT22;10495;50.922;4.760;2023-08-21T00:40:22;21.70;82.10
20672;DHT22;10495;50.922;4.760;2023-08-21T00:42:48;21.70;82.30
20672;DHT22;10495;50.922;4.760;2023-08-21T00:45:13;21.70;82.10
20672;DHT22;10495;50.922;4.760;2023-08-21T00:47:39;21.60;82.30
20672;DHT22;10495;50.922;4.760;2023-08-21T00:50:06;21.70;82.50
20672;DHT22;10495;50.922;4.760;2023-08-21T00:52:34;21.70;82.60
20672;DHT22;10495;50.922;4.760;2023-08-21T00:55:00;21.60;82.70
20672;DHT22;10495;50.922;4.760;2023-08-21T00:57:26;21.60;83.00
20672;DHT22;10495;50.922;4.760;2023-08-21T00:59:52;21.60;83.00
20672;DHT22;10495;50.922;4.760;2023-08-21T01:02:18;21.60;83.00
20672;DHT22;10495;50.922;4.760;2023-08-21T01:04:44;21.60;83.00
20672;DHT22;10495;50.922;4.760;2023-08-21T01:07:10;21.60;83.00
20672;DHT22;10495;50.922;4.760;2023-08-21T01:09:42;21.50;83.10
20672;DHT22;10495;50.922;4.760;2023-08-21T01:15:14;21.60;83.20
20672;DHT22;10495;50.922;4.760;2023-08-21T01:17:40;21.50;83.40
20672;DHT22;10495;50.922;4.760;2023-08-21T01:20:07;21.50;83.60
20672;DHT22;10495;50.922;4.760;2023-08-21T01:22:37;21.40;83.90
20672;DHT22;10495;50.922;4.760;2023-08-21T01:25:07;21.30;84.00
20672;DHT22;10495;50.922;4.760;2023-08-21T01:27:34;21.20;84.00
20672;DHT22;10495;50.922;4.760;2023-08-21T01:30:02;21.20;84.10
20672;DHT22;10495;50.922;4.760;2023-08-21T01:34:57;21.20;83.90
20672;DHT22;10495;50.922;4.760;2023-08-21T01:37:24;21.10;83.80
20672;DHT22;10495;50.922;4.760;2023-08-21T01:39:51;21.10;83.70
20672;DHT22;10495;50.922;4.760;2023-08-21T01:42:17;21.10;83.70
20672;DHT22;10495;50.922;4.760;2023-08-21T01:44:42;21.10;83.70
20672;DHT22;10495;50.922;4.760;2023-08-21T01:47:11;21.00;83.80
20672;DHT22;10495;50.922;4.760;2023-08-21T01:49:37;20.90;84.10
20672;DHT22;10495;50.922;4.760;2023-08-21T01:52:03;20.80;84.20
20672;DHT22;10495;50.922;4.760;2023-08-21T01:54:29;20.80;84.20
20672;DHT22;10495;50.922;4.760;2023-08-21T01:56:54;20.80;84.00
20672;DHT22;10495;50.922;4.760;2023-08-21T01:59:21;20.80;84.10
20672;DHT22;10495;50.922;4.760;2023-08-21T02:01:47;20.80;84.20
20672;DHT22;10495;50.922;4.760;2023-08-21T02:04:12;20.70;84.40
20672;DHT22;10495;50.922;4.760;2023-08-21T02:06:38;20.60;84.70
20672;DHT22;10495;50.922;4.760;2023-08-21T02:09:03;20.50;84.80
20672;DHT22;10495;50.922;4.760;2023-08-21T02:11:29;20.50;84.90
20672;DHT22;10495;50.922;4.760;2023-08-21T02:13:55;20.50;85.00
20672;DHT22;10495;50.922;4.760;2023-08-21T02:16:20;20.50;85.20
20672;DHT22;10495;50.922;4.760;2023-08-21T02:18:47;20.40;85.10
20672;DHT22;10495;50.922;4.760;2023-08-21T02:21:13;20.50;85.10
20672;DHT22;10495;50.922;4.760;2023-08-21T02:23:39;20.40;85.10
20672;DHT22;10495;50.922;4.760;2023-08-21T02:26:05;20.40;85.20
20672;DHT22;10495;50.922;4.760;2023-08-21T02:28:30;20.40;85.80
20672;DHT22;10495;50.922;4.760;2023-08-21T02:30:56;20.40;85.10
20672;DHT22;10495;50.922;4.760;2023-08-21T02:33:21;20.30;85.40
20672;DHT22;10495;50.922;4.760;2023-08-21T02:35:47;20.20;85.60
20672;DHT22;10495;50.922;4.760;2023-08-21T02:38:13;20.20;85.60
20672;DHT22;10495;50.922;4.760;2023-08-21T02:40:38;20.10;85.80
20672;DHT22;10495;50.922;4.760;2023-08-21T02:43:04;20.10;85.80
20672;DHT22;10495;50.922;4.760;2023-08-21T02:45:30;20.10;85.80
20672;DHT22;10495;50.922;4.760;2023-08-21T02:47:56;20.00;85.70
20672;DHT22;10495;50.922;4.760;2023-08-21T02:50:22;20.00;85.70
20672;DHT22;10495;50.922;4.760;2023-08-21T02:52:47;20.00;85.70
20672;DHT22;10495;50.922;4.760;2023-08-21T02:55:13;20.00;85.50
20672;DHT22;10495;50.922;4.760;2023-08-21T02:57:39;20.00;85.60
20672;DHT22;10495;50.922;4.760;2023-08-21T03:00:05;20.00;85.50
20672;DHT22;10495;50.922;4.760;2023-08-21T03:02:33;20.00;85.50
20672;DHT22;10495;50.922;4.760;2023-08-21T03:04:59;20.00;85.60
20672;DHT22;10495;50.922;4.760;2023-08-21T03:07:24;19.90;85.80
20672;DHT22;10495;50.922;4.760;2023-08-21T03:09:50;19.90;85.80
20672;DHT22;10495;50.922;4.760;2023-08-21T03:12:16;19.80;86.60
20672;DHT22;10495;50.922;4.760;2023-08-21T03:14:42;19.80;86.60
20672;DHT22;10495;50.922;4.760;2023-08-21T03:17:08;19.80;86.60
20672;DHT22;10495;50.922;4.760;2023-08-21T03:19:33;19.80;86.70
20672;DHT22;10495;50.922;4.760;2023-08-21T03:21:59;19.70;86.80
20672;DHT22;10495;50.922;4.760;2023-08-21T03:24:24;19.70;87.10
20672;DHT22;10495;50.922;4.760;2023-08-21T03:26:50;19.60;87.10
20672;DHT22;10495;50.922;4.760;2023-08-21T03:29:16;19.60;87.10
20672;DHT22;10495;50.922;4.760;2023-08-21T03:31:42;19.60;87.10
20672;DHT22;10495;50.922;4.760;2023-08-21T03:34:07;19.60;86.90
20672;DHT22;10495;50.922;4.760;2023-08-21T03:36:34;19.60;87.50
20672;DHT22;10495;50.922;4.760;2023-08-21T03:39:02;19.70;87.20
20672;DHT22;10495;50.922;4.760;2023-08-21T03:41:29;19.80;87.20
20672;DHT22;10495;50.922;4.760;2023-08-21T03:43:54;19.70;87.20
20672;DHT22;10495;50.922;4.760;2023-08-21T03:46:20;19.70;87.90
20672;DHT22;10495;50.922;4.760;2023-08-21T03:48:46;19.70;87.90
20672;DHT22;10495;50.922;4.760;2023-08-21T03:51:11;19.50;87.90
20672;DHT22;10495;50.922;4.760;2023-08-21T03:53:37;19.50;88.20
20672;DHT22;10495;50.922;4.760;2023-08-21T03:56:03;19.50;88.30
20672;DHT22;10495;50.922;4.760;2023-08-21T03:58:28;19.50;88.20
20672;DHT22;10495;50.922;4.760;2023-08-21T04:00:54;19.40;88.20
20672;DHT22;10495;50.922;4.760;2023-08-21T04:03:20;19.40;88.20
20672;DHT22;10495;50.922;4.760;2023-08-21T04:05:46;19.40;88.20
20672;DHT22;10495;50.922;4.760;2023-08-21T04:08:12;19.40;88.00
20672;DHT22;10495;50.922;4.760;2023-08-21T04:10:38;19.40;87.90
20672;DHT22;10495;50.922;4.760;2023-08-21T04:13:04;19.40;88.20
20672;DHT22;10495;50.922;4.760;2023-08-21T04:15:31;19.30;88.40
20672;DHT22;10495;50.922;4.760;2023-08-21T04:17:56;19.30;88.40
20672;DHT22;10495;50.922;4.760;2023-08-21T04:20:23;19.30;88.40
20672;DHT22;10495;50.922;4.760;2023-08-21T04:22:49;19.30;88.50
20672;DHT22;10495;50.922;4.760;2023-08-21T04:25:15;19.30;88.40
20672;DHT22;10495;50.922;4.760;2023-08-21T04:27:42;19.20;88.60
20672;DHT22;10495;50.922;4.760;2023-08-21T04:30:11;19.20;88.50
20672;DHT22;10495;50.922;4.760;2023-08-21T04:32:37;19.20;88.60
20672;DHT22;10495;50.922;4.760;2023-08-21T04:35:03;19.20;88.80
20672;DHT22;10495;50.922;4.760;2023-08-21T04:37:28;19.10;89.30
20672;DHT22;10495;50.922;4.760;2023-08-21T04:39:54;19.00;89.30
20672;DHT22;10495;50.922;4.760;2023-08-21T04:42:20;19.10;89.30
20672;DHT22;10495;50.922;4.760;2023-08-21T04:44:46;19.00;89.10
20672;DHT22;10495;50.922;4.760;2023-08-21T04:47:23;19.00;89.10
20672;DHT22;10495;50.922;4.760;2023-08-21T04:49:50;19.00;88.80
20672;DHT22;10495;50.922;4.760;2023-08-21T04:52:16;19.10;88.80
20672;DHT22;10495;50.922;4.760;2023-08-21T04:54:42;19.00;88.60
20672;DHT22;10495;50.922;4.760;2023-08-21T04:57:07;19.00;88.70
20672;DHT22;10495;50.922;4.760;2023-08-21T04:59:34;19.00;88.70
20672;DHT22;10495;50.922;4.760;2023-08-21T05:02:00;18.90;88.60
20672;DHT22;10495;50.922;4.760;2023-08-21T05:04:25;19.00;88.80
20672;DHT22;10495;50.922;4.760;2023-08-21T05:06:51;19.00;88.80
20672;DHT22;10495;50.922;4.760;2023-08-21T05:09:17;19.00;88.70
20672;DHT22;10495;50.922;4.760;2023-08-21T05:11:42;19.00;88.80
20672;DHT22;10495;50.922;4.760;2023-08-21T05:14:08;19.10;88.90
20672;DHT22;10495;50.922;4.760;2023-08-21T05:16:33;19.10;89.00
20672;DHT22;10495;50.922;4.760;2023-08-21T05:18:59;19.10;89.00
20672;DHT22;10495;50.922;4.760;2023-08-21T05:21:25;19.00;89.30
20672;DHT22;10495;50.922;4.760;2023-08-21T05:23:50;19.00;89.60
20672;DHT22;10495;50.922;4.760;2023-08-21T05:26:16;19.10;89.80
20672;DHT22;10495;50.922;4.760;2023-08-21T05:28:41;19.10;89.60
20672;DHT22;10495;50.922;4.760;2023-08-21T05:31:07;19.20;89.30
20672;DHT22;10495;50.922;4.760;2023-08-21T05:33:33;19.30;89.30
20672;DHT22;10495;50.922;4.760;2023-08-21T05:35:58;19.30;89.40
20672;DHT22;10495;50.922;4.760;2023-08-21T05:38:24;19.30;89.30
20672;DHT22;10495;50.922;4.760;2023-08-21T05:40:49;19.40;89.30
20672;DHT22;10495;50.922;4.760;2023-08-21T05:43:16;19.50;89.30
20672;DHT22;10495;50.922;4.760;2023-08-21T05:45:42;19.50;89.50
20672;DHT22;10495;50.922;4.760;2023-08-21T05:48:08;19.60;89.70
20672;DHT22;10495;50.922;4.760;2023-08-21T05:50:34;19.70;90.00
20672;DHT22;10495;50.922;4.760;2023-08-21T05:53:03;19.90;90.20
20672;DHT22;10495;50.922;4.760;2023-08-21T05:55:29;20.20;90.30
20672;DHT22;10495;50.922;4.760;2023-08-21T05:57:54;20.70;90.40
20672;DHT22;10495;50.922;4.760;2023-08-21T06:00:20;21.10;90.20
20672;DHT22;10495;50.922;4.760;2023-08-21T06:02:46;21.60;89.40
20672;DHT22;10495;50.922;4.760;2023-08-21T06:05:11;22.10;88.40
20672;DHT22;10495;50.922;4.760;2023-08-21T06:07:37;22.60;87.30
20672;DHT22;10495;50.922;4.760;2023-08-21T06:10:03;23.00;85.90
20672;DHT22;10495;50.922;4.760;2023-08-21T06:12:30;23.50;85.10
20672;DHT22;10495;50.922;4.760;2023-08-21T06:14:55;24.00;84.00
20672;DHT22;10495;50.922;4.760;2023-08-21T06:17:21;24.50;81.20
20672;DHT22;10495;50.922;4.760;2023-08-21T06:19:47;24.80;80.50
20672;DHT22;10495;50.922;4.760;2023-08-21T06:22:13;25.10;79.10
20672;DHT22;10495;50.922;4.760;2023-08-21T06:24:38;25.40;77.80
20672;DHT22;10495;50.922;4.760;2023-08-21T06:27:04;25.60;76.10
20672;DHT22;10495;50.922;4.760;2023-08-21T06:29:30;25.90;75.50
20672;DHT22;10495;50.922;4.760;2023-08-21T06:31:55;26.10;75.30
20672;DHT22;10495;50.922;4.760;2023-08-21T06:34:21;26.30;73.90
20672;DHT22;10495;50.922;4.760;2023-08-21T06:36:47;26.40;72.10
20672;DHT22;10495;50.922;4.760;2023-08-21T06:39:12;26.60;72.90
20672;DHT22;10495;50.922;4.760;2023-08-21T06:41:38;26.80;72.30
20672;DHT22;10495;50.922;4.760;2023-08-21T06:44:04;27.20;72.90
20672;DHT22;10495;50.922;4.760;2023-08-21T06:46:29;27.50;71.00
20672;DHT22;10495;50.922;4.760;2023-08-21T06:48:55;27.60;69.60
20672;DHT22;10495;50.922;4.760;2023-08-21T06:51:21;27.80;69.80
20672;DHT22;10495;50.922;4.760;2023-08-21T06:53:46;28.20;70.00
20672;DHT22;10495;50.922;4.760;2023-08-21T06:56:12;28.50;68.70
20672;DHT22;10495;50.922;4.760;2023-08-21T06:58:38;28.60;68.20
20672;DHT22;10495;50.922;4.760;2023-08-21T07:01:03;28.40;68.00
20672;DHT22;10495;50.922;4.760;2023-08-21T07:03:29;28.60;68.30
20672;DHT22;10495;50.922;4.760;2023-08-21T07:05:59;28.70;68.30
20672;DHT22;10495;50.922;4.760;2023-08-21T07:08:25;28.80;68.10
20672;DHT22;10495;50.922;4.760;2023-08-21T07:10:51;29.10;67.60
20672;DHT22;10495;50.922;4.760;2023-08-21T07:13:17;29.20;67.00
20672;DHT22;10495;50.922;4.760;2023-08-21T07:15:42;29.30;66.80
20672;DHT22;10495;50.922;4.760;2023-08-21T07:18:08;29.50;66.90
20672;DHT22;10495;50.922;4.760;2023-08-21T07:20:34;29.40;66.40
20672;DHT22;10495;50.922;4.760;2023-08-21T07:23:00;29.50;66.40
20672;DHT22;10495;50.922;4.760;2023-08-21T07:25:26;29.70;66.10
20672;DHT22;10495;50.922;4.760;2023-08-21T07:27:53;29.70;64.10
20672;DHT22;10495;50.922;4.760;2023-08-21T07:30:20;30.00;65.30
20672;DHT22;10495;50.922;4.760;2023-08-21T07:32:46;30.10;64.20
20672;DHT22;10495;50.922;4.760;2023-08-21T07:35:12;30.40;64.90
20672;DHT22;10495;50.922;4.760;2023-08-21T07:37:38;30.30;63.90
20672;DHT22;10495;50.922;4.760;2023-08-21T07:40:07;30.60;62.70
20672;DHT22;10495;50.922;4.760;2023-08-21T07:42:32;30.90;63.50
20672;DHT22;10495;50.922;4.760;2023-08-21T07:44:58;30.90;62.30
20672;DHT22;10495;50.922;4.760;2023-08-21T07:47:24;31.20;62.40
20672;DHT22;10495;50.922;4.760;2023-08-21T07:49:51;31.40;60.40
20672;DHT22;10495;50.922;4.760;2023-08-21T07:52:17;31.50;59.90
20672;DHT22;10495;50.922;4.760;2023-08-21T07:54:43;31.70;61.80
20672;DHT22;10495;50.922;4.760;2023-08-21T07:57:08;31.70;59.70
20672;DHT22;10495;50.922;4.760;2023-08-21T07:59:34;31.70;59.40
20672;DHT22;10495;50.922;4.760;2023-08-21T08:01:59;32.00;61.20
20672;DHT22;10495;50.922;4.760;2023-08-21T08:04:26;32.20;60.00
20672;DHT22;10495;50.922;4.760;2023-08-21T08:06:52;32.40;60.00
20672;DHT22;10495;50.922;4.760;2023-08-21T08:09:17;32.30;60.10
20672;DHT22;10495;50.922;4.760;2023-08-21T08:11:43;32.40;60.40
20672;DHT22;10495;50.922;4.760;2023-08-21T08:14:09;32.60;59.50
20672;DHT22;10495;50.922;4.760;2023-08-21T08:16:35;32.80;59.30
20672;DHT22;10495;50.922;4.760;2023-08-21T08:19:00;32.80;58.80
20672;DHT22;10495;50.922;4.760;2023-08-21T08:21:26;32.80;58.80
20672;DHT22;10495;50.922;4.760;2023-08-21T08:23:52;32.90;58.70
20672;DHT22;10495;50.922;4.760;2023-08-21T08:26:17;32.80;58.60
20672;DHT22;10495;50.922;4.760;2023-08-21T08:28:44;32.90;58.90
20672;DHT22;10495;50.922;4.760;2023-08-21T08:31:17;33.00;58.60
20672;DHT22;10495;50.922;4.760;2023-08-21T08:33:43;32.80;57.70
20672;DHT22;10495;50.922;4.760;2023-08-21T08:36:08;32.60;57.90
20672;DHT22;10495;50.922;4.760;2023-08-21T08:38:34;32.90;58.00
20672;DHT22;10495;50.922;4.760;2023-08-21T08:41:02;33.30;58.10
20672;DHT22;10495;50.922;4.760;2023-08-21T08:43:31;33.40;57.70
20672;DHT22;10495;50.922;4.760;2023-08-21T08:46:00;33.50;58.30
20672;DHT22;10495;50.922;4.760;2023-08-21T08:48:28;33.80;57.80
20672;DHT22;10495;50.922;4.760;2023-08-21T08:50:54;34.00;58.00
20672;DHT22;10495;50.922;4.760;2023-08-21T08:53:19;34.40;56.80
20672;DHT22;10495;50.922;4.760;2023-08-21T08:55:45;34.70;57.00
20672;DHT22;10495;50.922;4.760;2023-08-21T08:58:11;34.80;56.80
20672;DHT22;10495;50.922;4.760;2023-08-21T09:00:37;34.50;55.80
20672;DHT22;10495;50.922;4.760;2023-08-21T09:03:03;34.00;55.30
20672;DHT22;10495;50.922;4.760;2023-08-21T09:05:29;33.70;55.20
20672;DHT22;10495;50.922;4.760;2023-08-21T09:08:24;33.30;55.90
20672;DHT22;10495;50.922;4.760;2023-08-21T09:10:50;32.90;57.00
20672;DHT22;10495;50.922;4.760;2023-08-21T09:13:18;32.50;57.70
20672;DHT22;10495;50.922;4.760;2023-08-21T09:15:54;32.10;57.40
20672;DHT22;10495;50.922;4.760;2023-08-21T09:18:21;32.10;57.80
20672;DHT22;10495;50.922;4.760;2023-08-21T09:20:47;31.90;58.50
20672;DHT22;10495;50.922;4.760;2023-08-21T09:23:15;32.10;57.70
20672;DHT22;10495;50.922;4.760;2023-08-21T09:25:47;32.00;57.80
20672;DHT22;10495;50.922;4.760;2023-08-21T09:28:14;31.80;57.90
20672;DHT22;10495;50.922;4.760;2023-08-21T09:30:48;32.20;58.70
20672;DHT22;10495;50.922;4.760;2023-08-21T09:33:14;32.40;58.30
20672;DHT22;10495;50.922;4.760;2023-08-21T09:35:42;32.50;57.50
20672;DHT22;10495;50.922;4.760;2023-08-21T09:38:08;33.00;57.10
20672;DHT22;10495;50.922;4.760;2023-08-21T09:40:38;33.40;57.90
20672;DHT22;10495;50.922;4.760;2023-08-21T09:43:04;33.20;56.90
20672;DHT22;10495;50.922;4.760;2023-08-21T09:45:30;33.00;56.30
20672;DHT22;10495;50.922;4.760;2023-08-21T09:47:57;33.20;55.60
20672;DHT22;10495;50.922;4.760;2023-08-21T09:50:24;33.10;54.60
20672;DHT22;10495;50.922;4.760;2023-08-21T09:52:51;33.20;54.60
20672;DHT22;10495;50.922;4.760;2023-08-21T09:55:17;33.50;54.40
20672;DHT22;10495;50.922;4.760;2023-08-21T09:57:44;33.80;54.70
20672;DHT22;10495;50.922;4.760;2023-08-21T10:00:10;34.40;55.70
20672;DHT22;10495;50.922;4.760;2023-08-21T10:02:49;34.40;54.70
20672;DHT22;10495;50.922;4.760;2023-08-21T10:05:17;34.20;53.80
20672;DHT22;10495;50.922;4.760;2023-08-21T10:07:49;34.30;53.00
20672;DHT22;10495;50.922;4.760;2023-08-21T10:10:16;34.40;52.90
20672;DHT22;10495;50.922;4.760;2023-08-21T10:12:41;34.20;52.90
20672;DHT22;10495;50.922;4.760;2023-08-21T10:15:08;34.30;53.30
20672;DHT22;10495;50.922;4.760;2023-08-21T10:17:37;34.60;53.00
20672;DHT22;10495;50.922;4.760;2023-08-21T10:20:05;34.90;54.20
20672;DHT22;10495;50.922;4.760;2023-08-21T10:22:42;34.80;54.50
20672;DHT22;10495;50.922;4.760;2023-08-21T10:25:28;34.20;54.20
20672;DHT22;10495;50.922;4.760;2023-08-21T10:27:57;33.50;53.20
20672;DHT22;10495;50.922;4.760;2023-08-21T10:30:27;32.80;53.90
20672;DHT22;10495;50.922;4.760;2023-08-21T10:32:56;31.80;54.70
20672;DHT22;10495;50.922;4.760;2023-08-21T10:35:24;31.40;55.50
20672;DHT22;10495;50.922;4.760;2023-08-21T10:38:12;31.30;56.10
20672;DHT22;10495;50.922;4.760;2023-08-21T10:40:39;30.90;55.30
20672;DHT22;10495;50.922;4.760;2023-08-21T10:43:40;30.60;55.60
20672;DHT22;10495;50.922;4.760;2023-08-21T10:46:07;30.30;56.20
20672;DHT22;10495;50.922;4.760;2023-08-21T10:48:34;30.30;56.60
20672;DHT22;10495;50.922;4.760;2023-08-21T10:51:02;30.00;56.70
20672;DHT22;10495;50.922;4.760;2023-08-21T10:53:31;29.90;56.30
20672;DHT22;10495;50.922;4.760;2023-08-21T10:56:01;30.00;58.10
20672;DHT22;10495;50.922;4.760;2023-08-21T10:58:28;30.10;57.10
20672;DHT22;10495;50.922;4.760;2023-08-21T11:00:58;30.20;56.20
20672;DHT22;10495;50.922;4.760;2023-08-21T11:03:23;30.20;58.20
20672;DHT22;10495;50.922;4.760;2023-08-21T11:06:06;30.20;56.10
20672;DHT22;10495;50.922;4.760;2023-08-21T11:08:33;30.20;57.80
20672;DHT22;10495;50.922;4.760;2023-08-21T11:11:03;30.00;55.90
20672;DHT22;10495;50.922;4.760;2023-08-21T11:13:29;29.90;56.00
20672;DHT22;10495;50.922;4.760;2023-08-21T11:16:02;29.50;56.20
20672;DHT22;10495;50.922;4.760;2023-08-21T11:18:37;29.40;56.00
20672;DHT22;10495;50.922;4.760;2023-08-21T11:21:07;29.60;58.00
20672;DHT22;10495;50.922;4.760;2023-08-21T11:23:35;29.80;56.70
20672;DHT22;10495;50.922;4.760;2023-08-21T11:26:02;29.90;55.90
20672;DHT22;10495;50.922;4.760;2023-08-21T11:28:29;29.90;56.30
20672;DHT22;10495;50.922;4.760;2023-08-21T11:30:56;29.90;56.50
20672;DHT22;10495;50.922;4.760;2023-08-21T11:33:22;30.00;56.70
20672;DHT22;10495;50.922;4.760;2023-08-21T11:35:49;29.90;56.40
20672;DHT22;10495;50.922;4.760;2023-08-21T11:38:17;29.90;56.30
20672;DHT22;10495;50.922;4.760;2023-08-21T11:41:05;29.90;55.40
20672;DHT22;10495;50.922;4.760;2023-08-21T11:43:35;29.70;55.30
20672;DHT22;10495;50.922;4.760;2023-08-21T11:46:02;29.40;56.50
20672;DHT22;10495;50.922;4.760;2023-08-21T11:48:28;29.50;56.40
20672;DHT22;10495;50.922;4.760;2023-08-21T11:50:55;29.50;57.40
20672;DHT22;10495;50.922;4.760;2023-08-21T11:53:38;29.50;56.60
20672;DHT22;10495;50.922;4.760;2023-08-21T11:56:15;29.50;57.00
20672;DHT22;10495;50.922;4.760;2023-08-21T11:58:42;29.10;56.20
20672;DHT22;10495;50.922;4.760;2023-08-21T12:01:09;29.20;56.40
20672;DHT22;10495;50.922;4.760;2023-08-21T12:03:39;29.50;56.10
20672;DHT22;10495;50.922;4.760;2023-08-21T12:06:08;29.30;56.40
20672;DHT22;10495;50.922;4.760;2023-08-21T12:08:34;29.20;56.30
20672;DHT22;10495;50.922;4.760;2023-08-21T12:11:00;29.20;56.20
20672;DHT22;10495;50.922;4.760;2023-08-21T12:13:26;29.40;56.20
20672;DHT22;10495;50.922;4.760;2023-08-21T12:15:52;29.40;56.80
20672;DHT22;10495;50.922;4.760;2023-08-21T12:18:17;29.10;55.50
20672;DHT22;10495;50.922;4.760;2023-08-21T12:20:43;29.10;56.60
20672;DHT22;10495;50.922;4.760;2023-08-21T12:23:08;28.90;56.40
20672;DHT22;10495;50.922;4.760;2023-08-21T12:25:34;28.70;55.90
20672;DHT22;10495;50.922;4.760;2023-08-21T12:28:00;28.80;56.70
20672;DHT22;10495;50.922;4.760;2023-08-21T12:30:25;28.80;56.90
20672;DHT22;10495;50.922;4.760;2023-08-21T12:32:51;29.00;56.70
20672;DHT22;10495;50.922;4.760;2023-08-21T12:35:16;29.00;56.70
20672;DHT22;10495;50.922;4.760;2023-08-21T12:37:42;28.80;55.80
20672;DHT22;10495;50.922;4.760;2023-08-21T12:40:08;28.80;56.20
20672;DHT22;10495;50.922;4.760;2023-08-21T12:42:34;28.60;56.00
20672;DHT22;10495;50.922;4.760;2023-08-21T12:45:00;28.30;55.70
20672;DHT22;10495;50.922;4.760;2023-08-21T12:47:25;28.20;56.20
20672;DHT22;10495;50.922;4.760;2023-08-21T12:49:51;28.10;56.40
20672;DHT22;10495;50.922;4.760;2023-08-21T12:52:17;28.30;56.70
20672;DHT22;10495;50.922;4.760;2023-08-21T12:54:42;28.20;55.40
20672;DHT22;10495;50.922;4.760;2023-08-21T12:57:09;28.20;55.40
20672;DHT22;10495;50.922;4.760;2023-08-21T12:59:35;28.30;56.70
20672;DHT22;10495;50.922;4.760;2023-08-21T13:02:00;28.50;56.30
20672;DHT22;10495;50.922;4.760;2023-08-21T13:04:27;28.40;56.20
20672;DHT22;10495;50.922;4.760;2023-08-21T13:06:52;28.40;57.20
20672;DHT22;10495;50.922;4.760;2023-08-21T13:09:18;28.40;56.20
20672;DHT22;10495;50.922;4.760;2023-08-21T13:11:43;28.10;55.50
20672;DHT22;10495;50.922;4.760;2023-08-21T13:14:09;27.90;56.10
20672;DHT22;10495;50.922;4.760;2023-08-21T13:16:35;27.90;56.40
20672;DHT22;10495;50.922;4.760;2023-08-21T13:19:00;28.10;56.90
20672;DHT22;10495;50.922;4.760;2023-08-21T13:21:26;27.90;55.90
20672;DHT22;10495;50.922;4.760;2023-08-21T13:23:52;27.90;56.20
20672;DHT22;10495;50.922;4.760;2023-08-21T13:26:17;28.10;55.40
20672;DHT22;10495;50.922;4.760;2023-08-21T13:28:43;28.10;55.70
20672;DHT22;10495;50.922;4.760;2023-08-21T13:31:09;28.00;55.00
20672;DHT22;10495;50.922;4.760;2023-08-21T13:33:49;27.80;55.30
20672;DHT22;10495;50.922;4.760;2023-08-21T13:36:15;27.70;54.80
20672;DHT22;10495;50.922;4.760;2023-08-21T13:38:42;27.50;55.10
20672;DHT22;10495;50.922;4.760;2023-08-21T13:41:08;27.80;55.70
20672;DHT22;10495;50.922;4.760;2023-08-21T13:43:34;27.90;55.80
20672;DHT22;10495;50.922;4.760;2023-08-21T13:46:01;28.20;56.30
20672;DHT22;10495;50.922;4.760;2023-08-21T13:48:26;28.40;55.80
20672;DHT22;10495;50.922;4.760;2023-08-21T13:50:53;28.40;55.90
20672;DHT22;10495;50.922;4.760;2023-08-21T13:53:18;28.50;56.20
20672;DHT22;10495;50.922;4.760;2023-08-21T13:55:44;28.50;55.10
20672;DHT22;10495;50.922;4.760;2023-08-21T13:58:10;28.50;55.00
20672;DHT22;10495;50.922;4.760;2023-08-21T14:00:36;28.60;54.20
20672;DHT22;10495;50.922;4.760;2023-08-21T14:03:02;28.30;54.20
20672;DHT22;10495;50.922;4.760;2023-08-21T14:05:28;28.20;54.30
20672;DHT22;10495;50.922;4.760;2023-08-21T14:07:54;28.20;54.40
20672;DHT22;10495;50.922;4.760;2023-08-21T14:10:20;28.40;55.10
20672;DHT22;10495;50.922;4.760;2023-08-21T14:12:46;28.20;54.80
20672;DHT22;10495;50.922;4.760;2023-08-21T14:15:11;28.30;55.70
20672;DHT22;10495;50.922;4.760;2023-08-21T14:17:37;28.30;55.70
20672;DHT22;10495;50.922;4.760;2023-08-21T14:20:03;28.30;55.80
20672;DHT22;10495;50.922;4.760;2023-08-21T14:22:29;28.20;56.20
20672;DHT22;10495;50.922;4.760;2023-08-21T14:24:55;28.10;55.80
20672;DHT22;10495;50.922;4.760;2023-08-21T14:27:21;27.90;55.20
20672;DHT22;10495;50.922;4.760;2023-08-21T14:29:47;27.90;55.20
20672;DHT22;10495;50.922;4.760;2023-08-21T14:32:13;27.60;55.30
20672;DHT22;10495;50.922;4.760;2023-08-21T14:34:39;27.70;55.50
20672;DHT22;10495;50.922;4.760;2023-08-21T14:37:04;27.70;55.60
20672;DHT22;10495;50.922;4.760;2023-08-21T14:39:30;27.80;56.80
20672;DHT22;10495;50.922;4.760;2023-08-21T14:41:57;27.80;56.30
20672;DHT22;10495;50.922;4.760;2023-08-21T14:44:23;27.70;55.70
20672;DHT22;10495;50.922;4.760;2023-08-21T14:46:51;27.60;55.60
20672;DHT22;10495;50.922;4.760;2023-08-21T14:49:16;27.60;55.70
20672;DHT22;10495;50.922;4.760;2023-08-21T14:51:42;27.60;55.60
20672;DHT22;10495;50.922;4.760;2023-08-21T14:54:08;27.70;56.10
20672;DHT22;10495;50.922;4.760;2023-08-21T14:56:34;27.70;55.30
20672;DHT22;10495;50.922;4.760;2023-08-21T14:59:00;27.70;55.70
20672;DHT22;10495;50.922;4.760;2023-08-21T15:01:25;27.70;55.40
20672;DHT22;10495;50.922;4.760;2023-08-21T15:03:51;27.70;55.60
20672;DHT22;10495;50.922;4.760;2023-08-21T15:06:17;27.80;55.40
20672;DHT22;10495;50.922;4.760;2023-08-21T15:08:43;27.80;55.50
20672;DHT22;10495;50.922;4.760;2023-08-21T15:11:09;27.80;56.10
20672;DHT22;10495;50.922;4.760;2023-08-21T15:13:39;28.00;55.60
20672;DHT22;10495;50.922;4.760;2023-08-21T15:16:05;28.00;55.90
20672;DHT22;10495;50.922;4.760;2023-08-21T15:18:30;27.90;55.30
20672;DHT22;10495;50.922;4.760;2023-08-21T15:20:56;28.00;55.40
20672;DHT22;10495;50.922;4.760;2023-08-21T15:23:22;28.10;55.00
20672;DHT22;10495;50.922;4.760;2023-08-21T15:25:47;28.00;55.10
20672;DHT22;10495;50.922;4.760;2023-08-21T15:28:13;28.00;55.10
20672;DHT22;10495;50.922;4.760;2023-08-21T15:30:39;27.90;55.30
20672;DHT22;10495;50.922;4.760;2023-08-21T15:33:05;27.90;56.00